• Join FlightAware (Why Join?)
  • Login
  • US Flag GB Flag 
00:28 EDT


 

Airport Tracker/Info


-or-


 

Live Flight TrackerFlight Track Log ✈ EJA929 ✈ 13-Apr-2013 ✈ KSAF - KICT

Flight Track Log - Related Links

Times and Time Zones

All times are in EDT time to prevent confusion due to time zone crossing. See the EJA929 flight status page for this flight to view local times or setup timezone preferences in your user account.

Time Position Orientation Groundspeed Altitude Reporting Facility
EDT Latitude Longitude Course Direction KTS MPH feet Rate Location/Type
22:55 35.5950 -106.1097 51° Northeast 192 221 8,100  Level Albuquerque Center
22:56 35.5403 -106.1489 210° Southwest 236 272 10,300 2,640 Climbing Albuquerque Center
22:57 35.4747 -106.1875 206° Southwest 255 293 13,500 2,700 Climbing Albuquerque Center
22:58 35.4122 -106.1186 138° Southeast 329 379 15,800 2,040 Climbing Albuquerque Center
22:59 35.4397 -105.9956 75° East 370 426 17,700 2,160 Climbing Albuquerque Center
23:00 35.4446 -105.4081 51° Northeast  Level FlightAware Approximate
23:00 35.4764 -105.8489 73° East 399 459 20,300  Level Albuquerque Center
23:01 35.5133 -105.7111 72° East 415 478 22,800 2,280 Climbing Albuquerque Center
23:02 35.5489 -105.5694 73° East 426 490 25,000 2,340 Climbing Albuquerque Center
23:03 35.5822 -105.4261 74° East 431 496 27,600 1,500 Climbing Albuquerque Center
23:04 35.6197 -105.2719 73° East 456 525 28,100 240 Climbing Albuquerque Center
23:05 35.6692 -105.1017 70° East 501 577 28,100  Level Albuquerque Center
23:06 35.7258 -104.9428 66° East 502 578 28,100  Level Albuquerque Center
23:07 35.7822 -104.7836 66° East 502 578 28,100  Level Albuquerque Center
23:08 35.8364 -104.6286 67° East 494 568 28,100  Level Albuquerque Center
23:09 35.8900 -104.4750 67° East 484 557 28,100 780 Level Albuquerque Center
23:10 35.9422 -104.3244 67° East 476 548 29,800 1,620 Climbing Albuquerque Center
23:11 35.9950 -104.1742 66° East 473 544 31,400 1,560 Climbing Albuquerque Center
23:12 36.0494 -104.0197 66° East 479 551 33,000 1,380 Climbing Albuquerque Center
23:13 36.1028 -103.8608 67° East 489 563 34,200 960 Climbing Albuquerque Center
23:15 36.1592 -103.7011 66° East 497 572 35,000 360 Climbing Albuquerque Center
23:16 36.2147 -103.5381 67° East 505 581 35,000  Level Albuquerque Center
23:17 36.2700 -103.3733 67° East 509 586 35,100  Climbing Albuquerque Center
23:18 36.3267 -103.2033 67° East 521 600 35,000  Descending Albuquerque Center
23:19 36.3814 -103.0347 68° East 523 602 35,100  Climbing Albuquerque Center
23:20 36.4361 -102.8719 67° East 514 592 35,000  Descending Albuquerque Center
23:21 36.4908 -102.7044 68° East 519 597 35,100  Climbing Albuquerque Center
23:22 36.5450 -102.5389 68° East 518 596 35,000 -60 Descending Albuquerque Center
23:23 36.5992 -102.3731 68° East 517 595 35,000  Level Albuquerque Center
23:24 36.6561 -102.1956 68° East 512 589 35,100  Climbing Albuquerque Center
23:25 36.7064 -102.0403 68° East 508 585 35,100  Level Albuquerque Center
23:26 36.7653 -101.8594 68° East 505 581 35,100  Level Albuquerque Center
23:27 36.8147 -101.7019 69° East 508 585 35,100  Level Albuquerque Center
23:28 36.8636 -101.5469 68° East 504 580 35,100 -60 Level Albuquerque Center
23:29 36.9222 -101.3633 68° East 509 586 35,000  Descending Albuquerque Center
23:30 36.9628 -101.2319 69° East 510 587 35,100  Climbing Kansas City Center
23:31 37.0122 -101.0731 69° East 513 590 35,100  Level Kansas City Center
23:32 37.0578 -100.9139 70° East 513 590 35,100  Level Kansas City Center
23:33 37.0997 -100.7217 75° East 515 593 35,100  Level Kansas City Center
23:34 37.1350 -100.5581 75° East 512 589 35,100  Level Kansas City Center
23:35 37.1708 -100.3958 74° East 510 587 35,100  Level Kansas City Center
23:36 37.2122 -100.2064 75° East 509 586 35,100 -600 Level Kansas City Center
23:37 37.2703 -100.0558 64° Northeast 512 589 34,000 -1,320 Descending Kansas City Center
23:38 37.3492 -99.9197 54° Northeast 506 582 32,600 -1,560 Descending Kansas City Center
23:39 37.4425 -99.7561 54° Northeast 514 592 30,900 -1,620 Descending Kansas City Center
23:40 37.5231 -99.6150 54° Northeast 519 597 29,400 -1,500 Descending Kansas City Center
23:41 37.5956 -99.4683 58° Northeast 527 606 28,000 -1,500 Descending Kansas City Center
23:42 37.6511 -99.2992 67° East 521 600 26,500 -1,500 Descending Kansas City Center
23:43 37.6600 -99.1231 86° East 505 581 25,000 -1,500 Descending Kansas City Center
23:44 37.6664 -98.9500 87° East 497 572 23,500 -1,500 Descending Kansas City Center
23:45 37.6783 -98.7819 85° East 485 558 22,000 -1,680 Descending Kansas City Center
23:45 37.6858 -98.6203 87° East 475 547 20,500 -1,620 Descending Kansas City Center
23:47 37.6983 -98.4525 85° East 470 541 18,900 -1,800 Descending Kansas City Center
23:48 37.7108 -98.2964 84° East 452 520 16,600 -2,160 Descending Kansas City Center
23:49 37.7181 -98.1439 87° East 441 507 14,600 -1,860 Descending Kansas City Center
23:50 37.7275 -97.9989 85° East 428 493 12,900 -1,800 Descending Kansas City Center
23:51 37.7358 -97.8508 86° East 360 414 11,100 -1,980 Descending Kansas City Center
23:52 37.7369 -97.7403 89° East 325 374 9,000 -2,220 Descending Kansas City Center
23:53 37.7381 -97.6336 89° East 310 357 6,600 -2,280 Descending Kansas City Center
23:54 37.7400 -97.5294 89° East 306 352 4,500 -1,560 Descending Kansas City Center
23:55 37.7431 -97.4372 88° East 282 325 3,500 -900 Descending Kansas City Center
23:56 37.7264 -97.3897 114° Southeast 199 229 2,800 -720 Descending Kansas City Center
23:57 37.7008 -97.4008 199° South 133 153 2,100 -600 Descending Kansas City Center
23:58 37.6736 -97.4136 200° South 111 128 1,600 -360 Descending Kansas City Center
23:59 37.6461 -97.4256 199° South 110 127 1,400 -240 Descending Kansas City Center